Time;durP1;ratioP1;P1;durP2;ratioP2;P2;SDS_P1;SDS_P2;PMS_P1;PMS_P2;Temp;Humidity;BMP_temperature;BMP_pressure;BME280_temperature;BME280_humidity;BME280_pressure;Samples;Min_cycle;Max_cycle;Signal;HPM_P1;HPM_P2
2024/02/04 00:00:28;;;;;;;3.20;1.20;;;;;;;;;;6337202;27;20303;-57
2024/02/04 00:03:32;;;;;;;5.27;1.40;;;;;;;;;;6336823;27;20293;-55
2024/02/04 00:06:36;;;;;;;4.97;1.50;;;;;;;;;;6336949;27;20514;-57
2024/02/04 00:09:43;;;;;;;3.47;1.30;;;;;;;;;;6334562;27;20313;-57
2024/02/04 00:12:47;;;;;;;3.77;1.40;;;;;;;;;;6311540;28;20310;-57
2024/02/04 00:15:54;;;;;;;5.57;1.60;;;;;;;;;;6312045;28;20294;-57
2024/02/04 00:18:58;;;;;;;4.23;1.30;;;;;;;;;;6311646;28;20301;-56
2024/02/04 00:22:02;;;;;;;3.93;1.60;;;;;;;;;;6312073;28;20289;-56
2024/02/04 00:25:11;;;;;;;6.30;1.33;;;;;;;;;;6313456;28;20312;-56
2024/02/04 00:28:16;;;;;;;3.67;1.10;;;;;;;;;;6335996;27;20288;-56
2024/02/04 00:31:20;;;;;;;4.70;1.63;;;;;;;;;;6337184;27;20292;-55
2024/02/04 00:34:23;;;;;;;5.20;1.27;;;;;;;;;;6336684;27;20471;-56
2024/02/04 00:37:28;;;;;;;3.03;1.10;;;;;;;;;;6337017;27;20296;-56
2024/02/04 00:40:33;;;;;;;4.70;1.33;;;;;;;;;;6334960;28;20315;-56
2024/02/04 00:43:41;;;;;;;3.87;1.60;;;;;;;;;;6336407;27;20648;-56
2024/02/04 00:46:45;;;;;;;1.33;1.20;;;;;;;;;;6336701;27;20288;-56
2024/02/04 00:49:49;;;;;;;5.03;1.60;;;;;;;;;;6336074;27;20299;-55
2024/02/04 00:52:53;;;;;;;4.77;1.50;;;;;;;;;;6335801;27;20291;-59
2024/02/04 00:55:59;;;;;;;3.00;1.40;;;;;;;;;;6335187;28;20304;-61
2024/02/04 00:59:03;;;;;;;1.33;1.23;;;;;;;;;;6335947;27;20471;-57
2024/02/04 01:02:08;;;;;;;3.57;1.20;;;;;;;;;;6334706;28;20296;-56
2024/02/04 01:05:14;;;;;;;3.13;1.13;;;;;;;;;;6334677;28;20529;-57
2024/02/04 01:08:19;;;;;;;0.93;0.93;;;;;;;;;;6334124;27;20292;-56
2024/02/04 01:11:24;;;;;;;1.40;1.30;;;;;;;;;;6319039;27;20296;-57
2024/02/04 01:14:28;;;;;;;4.77;1.10;;;;;;;;;;6310820;28;20292;-57
2024/02/04 01:17:33;;;;;;;4.80;1.10;;;;;;;;;;6310912;28;20296;-57
2024/02/04 01:20:37;;;;;;;1.20;1.07;;;;;;;;;;6308853;28;20296;-57
2024/02/04 01:23:41;;;;;;;2.33;1.07;;;;;;;;;;6310213;28;20299;-57
2024/02/04 01:26:47;;;;;;;4.97;1.23;;;;;;;;;;6326081;28;20299;-57
2024/02/04 01:29:51;;;;;;;3.30;1.03;;;;;;;;;;6333592;28;20304;-57
2024/02/04 01:32:54;;;;;;;1.63;1.03;;;;;;;;;;6335256;27;20295;-57
2024/02/04 01:35:59;;;;;;;4.37;1.40;;;;;;;;;;6335901;27;20306;-57
2024/02/04 01:39:04;;;;;;;3.73;1.33;;;;;;;;;;6334381;27;20287;-57
2024/02/04 01:42:10;;;;;;;1.33;1.07;;;;;;;;;;6335422;27;20292;-56
2024/02/04 01:45:14;;;;;;;1.17;1.07;;;;;;;;;;6334727;27;20297;-57
2024/02/04 01:48:18;;;;;;;1.53;0.90;;;;;;;;;;6334875;27;20371;-56
2024/02/04 01:51:22;;;;;;;3.83;1.00;;;;;;;;;;6334291;27;20268;-58
2024/02/04 01:54:26;;;;;;;1.53;0.83;;;;;;;;;;6334772;27;20308;-57
2024/02/04 01:57:32;;;;;;;1.93;1.23;;;;;;;;;;6334140;27;20490;-57
2024/02/04 02:00:36;;;;;;;3.00;1.17;;;;;;;;;;6332832;27;20303;-56
2024/02/04 02:03:40;;;;;;;1.20;0.90;;;;;;;;;;6332900;27;20299;-56
2024/02/04 02:06:44;;;;;;;2.50;1.10;;;;;;;;;;6334987;27;20287;-56
2024/02/04 02:09:48;;;;;;;1.13;0.80;;;;;;;;;;6330337;27;20293;-57
2024/02/04 02:12:57;;;;;;;1.23;0.80;;;;;;;;;;6308762;28;20390;-57
2024/02/04 02:16:06;;;;;;;1.60;1.20;;;;;;;;;;6308455;28;20296;-57
2024/02/04 02:19:21;;;;;;;3.60;0.90;;;;;;;;;;6308999;28;20304;-57
2024/02/04 02:22:30;;;;;;;2.83;1.10;;;;;;;;;;6308092;28;20371;-56
2024/02/04 02:25:37;;;;;;;3.03;0.83;;;;;;;;;;6314188;28;20472;-56
2024/02/04 02:28:42;;;;;;;3.90;1.33;;;;;;;;;;6332752;28;20301;-57
2024/02/04 02:31:46;;;;;;;2.63;0.90;;;;;;;;;;6334136;27;20300;-57
2024/02/04 02:34:52;;;;;;;0.80;0.80;;;;;;;;;;6333994;27;20298;-55
2024/02/04 02:38:06;;;;;;;1.20;1.20;;;;;;;;;;6333784;27;20321;-57
2024/02/04 02:41:14;;;;;;;0.90;0.90;;;;;;;;;;6334143;27;20295;-57
2024/02/04 02:44:18;;;;;;;1.30;0.80;;;;;;;;;;6332495;28;20314;-57
2024/02/04 02:47:24;;;;;;;0.90;0.90;;;;;;;;;;6332754;28;20583;-56
2024/02/04 02:50:28;;;;;;;1.17;1.07;;;;;;;;;;6333582;27;20296;-55
2024/02/04 02:53:32;;;;;;;1.30;0.70;;;;;;;;;;6338997;27;20481;-56
2024/02/04 02:56:37;;;;;;;1.03;0.80;;;;;;;;;;6359408;28;20295;-58
2024/02/04 02:59:41;;;;;;;1.60;0.70;;;;;;;;;;6340114;28;20297;-57
2024/02/04 03:02:45;;;;;;;1.33;0.63;;;;;;;;;;6356892;28;20462;-59
2024/02/04 03:05:49;;;;;;;1.07;0.90;;;;;;;;;;6357407;28;20294;-56
2024/02/04 03:08:53;;;;;;;1.33;0.90;;;;;;;;;;6358450;28;20295;-57
2024/02/04 03:11:59;;;;;;;0.87;0.80;;;;;;;;;;6358943;28;20295;-56
2024/02/04 03:15:03;;;;;;;1.13;1.00;;;;;;;;;;6358023;28;20285;-57
2024/02/04 03:18:07;;;;;;;0.83;0.83;;;;;;;;;;6339831;28;20303;-57
2024/02/04 03:21:15;;;;;;;0.80;0.80;;;;;;;;;;6358468;28;20294;-57
2024/02/04 03:24:19;;;;;;;2.23;0.97;;;;;;;;;;6356354;28;20291;-57
2024/02/04 03:27:24;;;;;;;2.60;0.80;;;;;;;;;;6360566;27;20442;-56
2024/02/04 03:30:28;;;;;;;0.80;0.77;;;;;;;;;;6383585;28;20477;-57
2024/02/04 03:33:32;;;;;;;1.10;0.70;;;;;;;;;;6383319;27;20563;-57
2024/02/04 03:36:38;;;;;;;0.80;0.80;;;;;;;;;;6364748;28;20558;-56
2024/02/04 03:39:42;;;;;;;1.17;0.80;;;;;;;;;;6364434;27;20294;-55
2024/02/04 03:42:48;;;;;;;1.00;0.90;;;;;;;;;;6364569;28;20318;-58
2024/02/04 03:45:52;;;;;;;3.30;0.90;;;;;;;;;;6382491;28;20286;-56
2024/02/04 03:48:56;;;;;;;1.13;0.93;;;;;;;;;;6364491;28;20281;-58
2024/02/04 03:52:00;;;;;;;1.50;1.00;;;;;;;;;;6365390;28;20295;-55
2024/02/04 03:55:05;;;;;;;0.77;0.77;;;;;;;;;;6383456;28;20425;-56
2024/02/04 03:58:11;;;;;;;0.73;0.73;;;;;;;;;;6364168;27;20286;-56
2024/02/04 04:01:15;;;;;;;0.73;0.73;;;;;;;;;;6374381;28;20492;-58
2024/02/04 04:04:19;;;;;;;0.70;0.70;;;;;;;;;;6360838;28;20320;-57
2024/02/04 04:07:23;;;;;;;4.70;1.20;;;;;;;;;;6362760;28;20295;-58
2024/02/04 04:10:28;;;;;;;0.70;0.70;;;;;;;;;;6387367;27;20309;-57
2024/02/04 04:13:34;;;;;;;1.60;0.90;;;;;;;;;;6365635;27;20296;-58
2024/02/04 04:16:39;;;;;;;1.00;1.00;;;;;;;;;;6362460;28;20412;-57
2024/02/04 04:19:43;;;;;;;2.73;1.00;;;;;;;;;;6361923;28;20286;-56
2024/02/04 04:22:47;;;;;;;0.83;0.80;;;;;;;;;;6388243;27;20301;-57
2024/02/04 04:25:51;;;;;;;2.00;0.90;;;;;;;;;;6379727;27;20296;-57
2024/02/04 04:28:56;;;;;;;1.10;0.80;;;;;;;;;;6362582;28;20575;-58
2024/02/04 04:32:00;;;;;;;0.80;0.80;;;;;;;;;;6361483;28;20294;-57
2024/02/04 04:35:04;;;;;;;1.90;0.97;;;;;;;;;;6361696;28;20287;-57
2024/02/04 04:38:08;;;;;;;1.43;0.80;;;;;;;;;;6362039;28;20299;-57
2024/02/04 04:41:12;;;;;;;0.80;0.80;;;;;;;;;;6361575;28;20298;-57
2024/02/04 04:44:17;;;;;;;1.57;1.10;;;;;;;;;;6360254;28;20303;-55
2024/02/04 04:47:21;;;;;;;0.70;0.70;;;;;;;;;;6387533;27;20291;-56
2024/02/04 04:50:26;;;;;;;0.80;0.80;;;;;;;;;;6386976;27;20299;-55
2024/02/04 04:53:29;;;;;;;1.20;0.87;;;;;;;;;;6381007;27;20509;-54
2024/02/04 04:56:39;;;;;;;0.80;0.80;;;;;;;;;;6385178;27;20288;-56
2024/02/04 04:59:47;;;;;;;1.83;0.90;;;;;;;;;;6386915;27;20291;-55
2024/02/04 05:02:51;;;;;;;0.83;0.83;;;;;;;;;;6387310;27;20297;-56
2024/02/04 05:05:55;;;;;;;1.10;1.00;;;;;;;;;;6386585;27;20342;-55
2024/02/04 05:08:59;;;;;;;2.60;1.20;;;;;;;;;;6386858;27;20294;-56
2024/02/04 05:12:04;;;;;;;0.90;0.83;;;;;;;;;;6374143;27;20293;-53
2024/02/04 05:15:10;;;;;;;0.80;0.80;;;;;;;;;;6360888;28;20370;-56
2024/02/04 05:18:14;;;;;;;2.27;1.00;;;;;;;;;;6361071;28;20292;-57
2024/02/04 05:21:18;;;;;;;1.93;0.90;;;;;;;;;;6360462;28;20293;-57
2024/02/04 05:24:22;;;;;;;0.83;0.73;;;;;;;;;;6359468;28;20458;-58
2024/02/04 05:27:26;;;;;;;1.20;0.90;;;;;;;;;;6360276;28;20243;-56
2024/02/04 05:30:32;;;;;;;3.13;0.80;;;;;;;;;;6360043;28;20317;-57
2024/02/04 05:33:36;;;;;;;3.23;1.10;;;;;;;;;;6360591;28;20244;-56
2024/02/04 05:36:41;;;;;;;1.17;0.80;;;;;;;;;;6360025;28;20294;-56
2024/02/04 05:39:45;;;;;;;0.90;0.90;;;;;;;;;;6385044;27;20388;-57
2024/02/04 05:42:49;;;;;;;0.80;0.80;;;;;;;;;;6385685;27;20285;-56
2024/02/04 05:45:54;;;;;;;1.90;0.87;;;;;;;;;;6385269;27;20288;-57
2024/02/04 05:48:59;;;;;;;1.37;0.80;;;;;;;;;;6385725;27;20287;-57
2024/02/04 05:52:04;;;;;;;1.40;0.97;;;;;;;;;;6385751;27;20293;-56
2024/02/04 05:55:08;;;;;;;1.47;0.80;;;;;;;;;;6384743;27;20432;-56
2024/02/04 05:58:13;;;;;;;1.23;0.90;;;;;;;;;;6385596;27;20290;-56
2024/02/04 06:01:19;;;;;;;2.30;0.83;;;;;;;;;;6385312;27;20296;-53
2024/02/04 06:04:23;;;;;;;2.47;1.00;;;;;;;;;;6385246;27;20296;-57
2024/02/04 06:07:27;;;;;;;1.97;0.80;;;;;;;;;;6385868;27;20428;-57
2024/02/04 06:10:31;;;;;;;0.70;0.70;;;;;;;;;;6384338;27;20293;-55
2024/02/04 06:13:35;;;;;;;0.97;0.90;;;;;;;;;;6359565;28;20309;-54
2024/02/04 06:16:40;;;;;;;1.60;0.70;;;;;;;;;;6359830;28;20294;-57
2024/02/04 06:19:44;;;;;;;2.87;1.10;;;;;;;;;;6358804;28;20302;-56
2024/02/04 06:22:48;;;;;;;1.90;1.00;;;;;;;;;;6359467;28;20294;-56
2024/02/04 06:25:52;;;;;;;1.00;0.90;;;;;;;;;;6358487;28;20290;-56
2024/02/04 06:28:56;;;;;;;1.03;0.80;;;;;;;;;;6358731;28;20292;-58
2024/02/04 06:32:01;;;;;;;2.00;0.80;;;;;;;;;;6358309;28;20313;-56
2024/02/04 06:35:07;;;;;;;1.90;0.97;;;;;;;;;;6356752;28;20361;-56
2024/02/04 06:38:11;;;;;;;1.00;1.00;;;;;;;;;;6359595;28;20580;-57
2024/02/04 06:41:15;;;;;;;0.70;0.70;;;;;;;;;;6358841;28;20301;-57
2024/02/04 06:44:19;;;;;;;2.80;0.80;;;;;;;;;;6358620;28;20289;-55
2024/02/04 06:47:24;;;;;;;1.10;0.97;;;;;;;;;;6359675;28;20305;-55
2024/02/04 06:50:28;;;;;;;0.90;0.90;;;;;;;;;;6358881;28;20548;-57
2024/02/04 06:53:32;;;;;;;4.43;0.90;;;;;;;;;;6351872;28;20305;-57
2024/02/04 06:56:36;;;;;;;0.80;0.80;;;;;;;;;;6338774;28;20290;-57
2024/02/04 06:59:40;;;;;;;1.80;1.07;;;;;;;;;;6358494;28;20594;-57
2024/02/04 07:02:46;;;;;;;1.90;0.90;;;;;;;;;;6358655;28;20285;-57
2024/02/04 07:05:50;;;;;;;0.90;0.90;;;;;;;;;;6358771;28;20308;-59
2024/02/04 07:08:54;;;;;;;2.20;0.77;;;;;;;;;;6359249;28;20304;-56
2024/02/04 07:11:57;;;;;;;1.17;0.90;;;;;;;;;;6341541;28;20477;-53
2024/02/04 07:15:02;;;;;;;1.60;0.90;;;;;;;;;;6358551;28;20307;-55
2024/02/04 07:18:07;;;;;;;0.93;0.93;;;;;;;;;;6359005;28;20298;-56
2024/02/04 07:21:11;;;;;;;1.53;0.90;;;;;;;;;;6358468;28;20559;-57
2024/02/04 07:24:15;;;;;;;0.97;0.80;;;;;;;;;;6358466;28;20883;-58
2024/02/04 07:27:19;;;;;;;1.23;1.00;;;;;;;;;;6351336;28;20287;-58
2024/02/04 07:30:23;;;;;;;2.50;0.90;;;;;;;;;;6357580;28;20394;-56
2024/02/04 07:33:29;;;;;;;0.90;0.90;;;;;;;;;;6358633;28;20235;-57
2024/02/04 07:36:36;;;;;;;0.80;0.77;;;;;;;;;;6341751;28;20286;-57
2024/02/04 07:39:40;;;;;;;0.80;0.80;;;;;;;;;;6363433;28;20391;-58
2024/02/04 07:42:44;;;;;;;1.70;0.93;;;;;;;;;;6363497;28;20291;-57
2024/02/04 07:45:48;;;;;;;1.80;0.87;;;;;;;;;;6363214;28;20299;-56
2024/02/04 07:48:53;;;;;;;1.90;0.90;;;;;;;;;;6363926;28;20288;-58
2024/02/04 07:51:57;;;;;;;2.23;1.00;;;;;;;;;;6362978;28;20302;-57
2024/02/04 07:55:01;;;;;;;7.13;1.17;;;;;;;;;;6363188;28;20298;-57
2024/02/04 07:58:05;;;;;;;3.80;0.80;;;;;;;;;;6363422;28;20302;-57
2024/02/04 08:01:09;;;;;;;1.37;1.00;;;;;;;;;;6362171;28;20448;-57
2024/02/04 08:04:15;;;;;;;0.80;0.80;;;;;;;;;;6362715;28;20567;-58
2024/02/04 08:07:20;;;;;;;1.03;0.87;;;;;;;;;;6363049;28;20294;-57
2024/02/04 08:10:24;;;;;;;1.00;0.90;;;;;;;;;;6362363;28;20589;-58
2024/02/04 08:13:28;;;;;;;0.80;0.80;;;;;;;;;;6361518;28;20290;-57
2024/02/04 08:16:32;;;;;;;0.80;0.80;;;;;;;;;;6362219;28;20303;-55
2024/02/04 08:19:37;;;;;;;1.13;0.77;;;;;;;;;;6362172;28;20315;-57
2024/02/04 08:22:42;;;;;;;8.23;0.90;;;;;;;;;;6362179;28;20318;-57
2024/02/04 08:25:46;;;;;;;1.60;0.80;;;;;;;;;;6361748;28;20287;-57
2024/02/04 08:28:50;;;;;;;1.60;1.00;;;;;;;;;;6362613;28;20289;-57
2024/02/04 08:31:54;;;;;;;0.80;0.80;;;;;;;;;;6361855;28;20579;-57
2024/02/04 08:35:00;;;;;;;0.87;0.87;;;;;;;;;;6361673;28;20584;-57
2024/02/04 08:38:04;;;;;;;0.87;0.87;;;;;;;;;;6362178;28;20589;-58
2024/02/04 08:41:08;;;;;;;4.63;0.90;;;;;;;;;;6361366;28;20360;-57
2024/02/04 08:44:12;;;;;;;1.13;0.83;;;;;;;;;;6361921;28;20322;-58
2024/02/04 08:47:34;;;;;;;2.40;0.93;;;;;;;;;;6361854;28;20306;-56
2024/02/04 08:50:40;;;;;;;2.50;0.70;;;;;;;;;;6361831;28;20283;-58
2024/02/04 08:53:43;;;;;;;3.60;1.57;;;;;;;;;;6343201;28;20450;-57
2024/02/04 08:56:48;;;;;;;0.80;0.80;;;;;;;;;;6361618;28;20325;-57
2024/02/04 08:59:52;;;;;;;3.80;0.90;;;;;;;;;;6361428;28;20294;-58
2024/02/04 09:02:56;;;;;;;5.23;1.00;;;;;;;;;;6362033;28;20300;-58
2024/02/04 09:06:02;;;;;;;2.97;1.07;;;;;;;;;;6360869;28;20305;-57
2024/02/04 09:09:08;;;;;;;0.70;0.70;;;;;;;;;;6360511;28;20310;-57
2024/02/04 09:12:11;;;;;;;2.70;1.07;;;;;;;;;;6360887;28;20312;-57
2024/02/04 09:15:15;;;;;;;1.70;1.00;;;;;;;;;;6360665;28;20378;-58
2024/02/04 09:18:19;;;;;;;4.47;1.03;;;;;;;;;;6361555;28;20295;-57
2024/02/04 09:21:25;;;;;;;7.93;1.17;;;;;;;;;;6359618;28;20484;-57
2024/02/04 09:24:30;;;;;;;1.67;0.90;;;;;;;;;;6360726;28;20303;-57
2024/02/04 09:27:34;;;;;;;3.67;0.93;;;;;;;;;;6361222;28;20244;-55
2024/02/04 09:30:38;;;;;;;3.13;0.90;;;;;;;;;;6360570;28;20308;-56
2024/02/04 09:33:43;;;;;;;1.30;0.90;;;;;;;;;;6361070;28;20299;-58
2024/02/04 09:36:48;;;;;;;8.80;1.20;;;;;;;;;;6352206;28;20290;-57
2024/02/04 09:39:52;;;;;;;2.67;1.00;;;;;;;;;;6360288;28;20315;-58
2024/02/04 09:42:57;;;;;;;7.97;1.10;;;;;;;;;;6360835;28;20560;-57
2024/02/04 09:46:01;;;;;;;3.40;1.10;;;;;;;;;;6360127;28;20344;-57
2024/02/04 09:49:06;;;;;;;1.00;1.00;;;;;;;;;;6359800;28;20304;-58
2024/02/04 09:52:14;;;;;;;1.03;1.03;;;;;;;;;;6360328;28;20662;-57
2024/02/04 09:55:19;;;;;;;6.27;0.93;;;;;;;;;;6359729;28;20581;-56
2024/02/04 09:58:23;;;;;;;3.30;1.00;;;;;;;;;;6359940;28;20305;-61
2024/02/04 10:01:27;;;;;;;3.77;1.03;;;;;;;;;;6359969;28;20427;-56
2024/02/04 10:04:31;;;;;;;3.73;1.10;;;;;;;;;;6359726;28;20284;-57
2024/02/04 10:07:37;;;;;;;3.43;1.00;;;;;;;;;;6360557;28;20303;-57
2024/02/04 10:10:41;;;;;;;1.07;0.80;;;;;;;;;;6359907;28;20296;-58
2024/02/04 10:13:46;;;;;;;1.23;0.83;;;;;;;;;;6359911;28;20311;-57
2024/02/04 10:16:51;;;;;;;4.93;1.23;;;;;;;;;;6359888;28;20300;-57
2024/02/04 10:19:55;;;;;;;4.33;1.00;;;;;;;;;;6359898;28;20287;-57
2024/02/04 10:23:00;;;;;;;5.53;1.10;;;;;;;;;;6360038;28;20292;-57
2024/02/04 10:26:04;;;;;;;4.57;1.20;;;;;;;;;;6359435;28;20295;-57
2024/02/04 10:29:10;;;;;;;0.73;0.73;;;;;;;;;;6359329;28;20291;-59
2024/02/04 10:32:14;;;;;;;12.93;1.37;;;;;;;;;;6359597;28;20295;-57
2024/02/04 10:35:26;;;;;;;5.97;1.33;;;;;;;;;;6359065;28;20303;-56
2024/02/04 10:38:31;;;;;;;3.50;1.07;;;;;;;;;;6359822;28;20443;-56
2024/02/04 10:41:38;;;;;;;3.10;1.23;;;;;;;;;;6359131;28;20296;-57
2024/02/04 10:44:44;;;;;;;1.37;1.00;;;;;;;;;;6359362;28;20284;-58
2024/02/04 10:47:56;;;;;;;10.80;1.43;;;;;;;;;;6359421;28;20293;-56
2024/02/04 10:51:00;;;;;;;1.00;1.00;;;;;;;;;;6359035;28;20297;-57
2024/02/04 10:54:06;;;;;;;4.33;1.00;;;;;;;;;;6358826;28;20301;-57
2024/02/04 10:57:13;;;;;;;2.57;1.20;;;;;;;;;;6359288;28;20387;-56
2024/02/04 11:00:18;;;;;;;6.50;1.10;;;;;;;;;;6358883;28;20307;-57
2024/02/04 11:03:27;;;;;;;7.30;1.40;;;;;;;;;;6358584;28;20255;-58
2024/02/04 11:06:33;;;;;;;1.70;1.03;;;;;;;;;;6359382;28;20299;-57
2024/02/04 11:09:52;;;;;;;5.13;1.20;;;;;;;;;;6351484;28;20287;-57
2024/02/04 11:12:57;;;;;;;3.70;1.97;;;;;;;;;;6364496;28;20310;-58
2024/02/04 11:16:18;;;;;;;2.87;1.20;;;;;;;;;;6363445;28;20291;-59
2024/02/04 11:19:33;;;;;;;4.73;1.43;;;;;;;;;;6363338;28;20288;-57
2024/02/04 11:22:50;;;;;;;5.30;1.20;;;;;;;;;;6364343;28;20292;-58
2024/02/04 11:25:57;;;;;;;7.77;1.97;;;;;;;;;;6363183;28;20344;-58
2024/02/04 11:29:02;;;;;;;4.77;1.30;;;;;;;;;;6363250;28;20300;-58
2024/02/04 11:32:07;;;;;;;5.53;1.40;;;;;;;;;;6363372;28;20302;-58
2024/02/04 11:35:11;;;;;;;2.30;1.40;;;;;;;;;;6363220;28;20291;-56
2024/02/04 11:38:18;;;;;;;4.83;1.50;;;;;;;;;;6363336;28;20296;-56
2024/02/04 11:41:26;;;;;;;3.83;1.40;;;;;;;;;;6363501;28;20291;-56
2024/02/04 11:44:29;;;;;;;7.33;1.33;;;;;;;;;;6362774;28;20292;-57
2024/02/04 11:47:35;;;;;;;3.43;1.40;;;;;;;;;;6363470;28;20300;-57
2024/02/04 11:50:40;;;;;;;1.13;1.00;;;;;;;;;;6362675;28;20467;-57
2024/02/04 11:53:45;;;;;;;1.97;1.30;;;;;;;;;;6363375;28;20557;-56
2024/02/04 11:56:53;;;;;;;1.80;1.10;;;;;;;;;;6355026;28;20288;-57
2024/02/04 11:59:58;;;;;;;11.83;1.13;;;;;;;;;;6362686;28;20297;-57
2024/02/04 12:03:03;;;;;;;4.20;1.47;;;;;;;;;;6362848;28;20289;-59
2024/02/04 12:06:08;;;;;;;10.77;1.60;;;;;;;;;;6362494;28;20589;-59
2024/02/04 12:09:13;;;;;;;2.70;1.20;;;;;;;;;;6362189;28;20289;-58
2024/02/04 12:12:19;;;;;;;1.07;1.00;;;;;;;;;;6363200;28;20292;-58
2024/02/04 12:15:23;;;;;;;11.50;1.77;;;;;;;;;;6387379;27;20288;-59
2024/02/04 12:18:27;;;;;;;4.63;1.40;;;;;;;;;;6388208;27;20248;-56
2024/02/04 12:21:31;;;;;;;1.00;1.00;;;;;;;;;;6368187;27;20299;-58
2024/02/04 12:24:36;;;;;;;5.10;1.00;;;;;;;;;;6387592;27;20279;-58
2024/02/04 12:27:42;;;;;;;1.00;0.90;;;;;;;;;;6364452;27;20405;-57
2024/02/04 12:30:53;;;;;;;4.20;1.03;;;;;;;;;;6362011;28;20288;-57
2024/02/04 12:33:59;;;;;;;2.33;0.80;;;;;;;;;;6362301;28;20293;-60
2024/02/04 12:37:04;;;;;;;6.63;1.10;;;;;;;;;;6344237;28;20395;-56
2024/02/04 12:40:11;;;;;;;7.17;1.40;;;;;;;;;;6362208;28;20293;-55
2024/02/04 12:43:17;;;;;;;1.13;0.90;;;;;;;;;;6362996;28;20285;-56
2024/02/04 12:46:21;;;;;;;3.70;1.10;;;;;;;;;;6362253;28;20297;-58
2024/02/04 12:49:25;;;;;;;5.70;1.00;;;;;;;;;;6361583;28;20295;-57
2024/02/04 12:52:31;;;;;;;1.70;0.80;;;;;;;;;;6362160;28;20531;-57
2024/02/04 12:55:36;;;;;;;1.33;1.17;;;;;;;;;;6361462;28;20300;-57
2024/02/04 12:58:44;;;;;;;3.27;1.10;;;;;;;;;;6362279;28;20299;-59
2024/02/04 13:01:53;;;;;;;1.37;0.83;;;;;;;;;;6361695;28;20296;-59
2024/02/04 13:04:57;;;;;;;8.60;1.20;;;;;;;;;;6361408;28;20285;-58
2024/02/04 13:08:03;;;;;;;6.07;1.17;;;;;;;;;;6361623;28;20577;-57
2024/02/04 13:11:08;;;;;;;1.67;1.00;;;;;;;;;;6361259;28;20300;-58
2024/02/04 13:14:13;;;;;;;6.07;1.30;;;;;;;;;;6386217;27;20287;-59
2024/02/04 13:17:17;;;;;;;2.93;1.20;;;;;;;;;;6387543;27;20296;-57
2024/02/04 13:20:22;;;;;;;3.70;1.00;;;;;;;;;;6386866;27;20291;-58
2024/02/04 13:23:25;;;;;;;3.40;0.97;;;;;;;;;;6387184;27;20296;-57
2024/02/04 13:26:29;;;;;;;2.73;1.00;;;;;;;;;;6372879;27;20300;-57
2024/02/04 13:29:35;;;;;;;2.67;0.90;;;;;;;;;;6360801;28;20308;-59
2024/02/04 13:32:41;;;;;;;5.27;1.33;;;;;;;;;;6361305;28;20293;-58
2024/02/04 13:35:46;;;;;;;3.93;1.30;;;;;;;;;;6359456;28;20305;-58
2024/02/04 13:38:50;;;;;;;4.57;1.30;;;;;;;;;;6360980;28;20295;-57
2024/02/04 13:41:54;;;;;;;9.53;1.07;;;;;;;;;;6359861;28;20359;-56
2024/02/04 13:44:59;;;;;;;5.27;1.10;;;;;;;;;;6360166;28;20488;-59
2024/02/04 13:48:03;;;;;;;2.53;0.90;;;;;;;;;;6360798;28;20300;-58
2024/02/04 13:51:07;;;;;;;0.80;0.80;;;;;;;;;;6360270;28;20293;-57
2024/02/04 13:54:15;;;;;;;7.03;2.27;;;;;;;;;;6360365;28;20305;-57
2024/02/04 13:57:20;;;;;;;8.10;1.20;;;;;;;;;;6359674;28;20592;-57
2024/02/04 14:00:26;;;;;;;3.97;1.10;;;;;;;;;;6359966;28;20588;-58
2024/02/04 14:03:30;;;;;;;4.73;0.97;;;;;;;;;;6360275;28;20234;-58
2024/02/04 14:06:34;;;;;;;4.90;0.90;;;;;;;;;;6360087;28;20285;-59
2024/02/04 14:09:38;;;;;;;5.40;1.03;;;;;;;;;;6359234;28;20297;-57
2024/02/04 14:12:45;;;;;;;8.57;1.30;;;;;;;;;;6378009;27;20300;-57
2024/02/04 14:15:52;;;;;;;1.13;1.00;;;;;;;;;;6385345;27;20291;-58
2024/02/04 14:18:56;;;;;;;4.23;0.90;;;;;;;;;;6385792;27;20287;-58
2024/02/04 14:22:04;;;;;;;4.00;1.07;;;;;;;;;;6384739;27;20287;-58
2024/02/04 14:25:08;;;;;;;3.93;1.20;;;;;;;;;;6383493;27;20295;-59
2024/02/04 14:28:13;;;;;;;2.47;1.10;;;;;;;;;;6359407;28;20289;-56
2024/02/04 14:31:18;;;;;;;2.10;1.00;;;;;;;;;;6359154;28;20604;-55
2024/02/04 14:34:22;;;;;;;3.10;1.10;;;;;;;;;;6358996;28;20291;-56
2024/02/04 14:37:28;;;;;;;4.83;1.20;;;;;;;;;;6359590;28;20299;-58
2024/02/04 14:40:34;;;;;;;8.30;1.30;;;;;;;;;;6358684;28;20292;-57
2024/02/04 14:43:38;;;;;;;3.20;1.23;;;;;;;;;;6359458;28;20284;-57
2024/02/04 14:46:45;;;;;;;6.10;1.50;;;;;;;;;;6358740;28;20295;-56
2024/02/04 14:49:49;;;;;;;3.83;1.30;;;;;;;;;;6359047;28;20308;-59
2024/02/04 14:52:53;;;;;;;2.10;1.40;;;;;;;;;;6359211;28;20327;-56
2024/02/04 14:55:59;;;;;;;3.63;1.40;;;;;;;;;;6333652;28;20571;-57
2024/02/04 14:59:03;;;;;;;2.87;1.40;;;;;;;;;;6334078;28;20293;-56
2024/02/04 15:02:09;;;;;;;4.57;1.40;;;;;;;;;;6334040;28;20321;-56
2024/02/04 15:05:13;;;;;;;5.10;1.30;;;;;;;;;;6333248;28;20296;-56
2024/02/04 15:08:17;;;;;;;3.90;1.47;;;;;;;;;;6334084;28;20301;-58
2024/02/04 15:11:22;;;;;;;3.60;1.20;;;;;;;;;;6333501;28;20474;-57
2024/02/04 15:14:26;;;;;;;1.53;1.20;;;;;;;;;;6356168;28;20284;-56
2024/02/04 15:17:33;;;;;;;5.33;1.43;;;;;;;;;;6359093;28;20349;-56
2024/02/04 15:20:37;;;;;;;1.30;1.30;;;;;;;;;;6358932;28;20316;-58
2024/02/04 15:23:42;;;;;;;4.40;1.27;;;;;;;;;;6359198;28;20287;-56
2024/02/04 15:26:48;;;;;;;3.07;1.27;;;;;;;;;;6342822;28;20295;-56
2024/02/04 15:29:53;;;;;;;1.40;1.20;;;;;;;;;;6332864;28;20317;-54
2024/02/04 15:32:59;;;;;;;3.03;1.40;;;;;;;;;;6333295;28;20383;-56
2024/02/04 15:36:03;;;;;;;3.67;1.20;;;;;;;;;;6332972;28;20292;-57
2024/02/04 15:39:11;;;;;;;1.00;1.00;;;;;;;;;;6332989;28;20438;-56
2024/02/04 15:42:15;;;;;;;5.33;1.50;;;;;;;;;;6333569;28;20300;-57
2024/02/04 15:45:19;;;;;;;3.90;1.40;;;;;;;;;;6332888;28;20391;-56
2024/02/04 15:48:27;;;;;;;1.10;1.10;;;;;;;;;;6332402;28;20413;-54
2024/02/04 15:51:32;;;;;;;2.47;1.37;;;;;;;;;;6332666;28;20544;-57
2024/02/04 15:54:36;;;;;;;8.53;1.43;;;;;;;;;;6346555;28;20291;-54
2024/02/04 15:57:41;;;;;;;1.60;1.50;;;;;;;;;;6360006;28;20517;-54
2024/02/04 16:00:46;;;;;;;3.03;1.33;;;;;;;;;;6362696;28;20291;-56
2024/02/04 16:03:53;;;;;;;2.53;1.33;;;;;;;;;;6362727;28;20291;-58
2024/02/04 16:06:58;;;;;;;2.93;1.43;;;;;;;;;;6362039;28;20291;-57
2024/02/04 16:10:03;;;;;;;3.80;1.40;;;;;;;;;;6362542;28;20286;-58
2024/02/04 16:13:09;;;;;;;2.83;1.30;;;;;;;;;;6385050;27;20287;-57
2024/02/04 16:16:15;;;;;;;8.63;1.10;;;;;;;;;;6388357;27;20307;-58
2024/02/04 16:19:22;;;;;;;3.03;1.10;;;;;;;;;;6388784;27;20528;-57
2024/02/04 16:22:26;;;;;;;3.87;1.10;;;;;;;;;;6388608;27;20387;-56
2024/02/04 16:25:32;;;;;;;3.43;1.10;;;;;;;;;;6382911;27;20290;-57
2024/02/04 16:28:38;;;;;;;1.33;1.13;;;;;;;;;;6362678;28;20437;-57
2024/02/04 16:31:42;;;;;;;1.30;1.20;;;;;;;;;;6362389;28;20291;-57
2024/02/04 16:34:47;;;;;;;2.10;1.20;;;;;;;;;;6362229;28;20287;-56
2024/02/04 16:37:51;;;;;;;0.90;0.90;;;;;;;;;;6362426;28;20381;-56
2024/02/04 16:40:55;;;;;;;7.53;1.20;;;;;;;;;;6361794;28;20298;-57
2024/02/04 16:43:59;;;;;;;1.00;1.00;;;;;;;;;;6361854;28;20294;-58
2024/02/04 16:47:04;;;;;;;1.57;1.23;;;;;;;;;;6362655;28;20290;-59
2024/02/04 16:50:10;;;;;;;2.63;1.07;;;;;;;;;;6361678;28;20294;-57
2024/02/04 16:53:16;;;;;;;5.27;1.20;;;;;;;;;;6362172;28;20293;-57
2024/02/04 16:56:23;;;;;;;5.00;1.53;;;;;;;;;;6361717;28;20592;-55
2024/02/04 16:59:27;;;;;;;1.40;1.10;;;;;;;;;;6361772;28;20290;-56
2024/02/04 17:02:31;;;;;;;1.40;1.30;;;;;;;;;;6361972;28;20290;-58
2024/02/04 17:05:38;;;;;;;4.80;1.60;;;;;;;;;;6361199;28;20470;-58
2024/02/04 17:09:01;;;;;;;3.93;1.37;;;;;;;;;;6361317;28;20298;-59
2024/02/04 17:12:07;;;;;;;3.73;1.43;;;;;;;;;;6374730;27;20329;-57
2024/02/04 17:15:13;;;;;;;4.07;1.40;;;;;;;;;;6386798;27;20299;-54
2024/02/04 17:18:23;;;;;;;3.53;1.50;;;;;;;;;;6387111;27;20295;-55
2024/02/04 17:21:33;;;;;;;3.97;1.70;;;;;;;;;;6385346;27;20291;-56
2024/02/04 17:24:39;;;;;;;2.30;1.40;;;;;;;;;;6386340;27;20285;-57
2024/02/04 17:27:43;;;;;;;2.60;1.70;;;;;;;;;;6362690;27;20311;-57
2024/02/04 17:30:48;;;;;;;4.80;1.80;;;;;;;;;;6360866;28;20286;-58
2024/02/04 17:33:53;;;;;;;1.33;1.27;;;;;;;;;;6361151;28;20291;-57
2024/02/04 17:36:59;;;;;;;2.20;1.30;;;;;;;;;;6360646;28;20356;-57
2024/02/04 17:40:05;;;;;;;2.30;1.20;;;;;;;;;;6360113;28;20598;-57
2024/02/04 17:43:11;;;;;;;2.20;1.33;;;;;;;;;;6360851;28;20295;-57
2024/02/04 17:46:15;;;;;;;3.53;1.50;;;;;;;;;;6361150;28;20296;-56
2024/02/04 17:49:19;;;;;;;3.03;1.20;;;;;;;;;;6360348;28;20441;-57
2024/02/04 17:52:25;;;;;;;2.30;1.60;;;;;;;;;;6361151;28;20591;-56
2024/02/04 17:55:29;;;;;;;2.10;1.40;;;;;;;;;;6359891;28;20298;-61
2024/02/04 17:58:34;;;;;;;2.37;1.60;;;;;;;;;;6361078;28;20296;-56
2024/02/04 18:01:38;;;;;;;1.53;1.30;;;;;;;;;;6359881;28;20469;-59
2024/02/04 18:04:43;;;;;;;2.27;1.40;;;;;;;;;;6359819;28;20294;-58
2024/02/04 18:07:50;;;;;;;2.43;1.20;;;;;;;;;;6360524;28;20287;-58
2024/02/04 18:10:54;;;;;;;2.97;1.67;;;;;;;;;;6362229;27;20296;-58
2024/02/04 18:14:01;;;;;;;4.47;1.47;;;;;;;;;;6385116;27;20292;-58
2024/02/04 18:17:06;;;;;;;1.83;1.20;;;;;;;;;;6385535;27;20463;-55
2024/02/04 18:20:12;;;;;;;4.03;1.67;;;;;;;;;;6385008;27;20293;-58
2024/02/04 18:23:17;;;;;;;1.20;1.20;;;;;;;;;;6385572;27;20359;-56
2024/02/04 18:26:23;;;;;;;3.60;1.57;;;;;;;;;;6372667;27;20581;-55
2024/02/04 18:29:27;;;;;;;3.83;1.30;;;;;;;;;;6359187;28;20292;-57